createdAt,value
2017-01-10T00:00:16.759Z,0
2017-01-10T00:01:16.825Z,0
2017-01-10T00:02:16.879Z,0
2017-01-10T00:03:16.922Z,0
2017-01-10T00:04:16.984Z,0
2017-01-10T00:05:17.038Z,0
2017-01-10T00:06:17.100Z,0
2017-01-10T00:07:17.161Z,0
2017-01-10T00:08:17.212Z,0
2017-01-10T00:09:17.264Z,0
2017-01-10T00:10:17.314Z,0
2017-01-10T00:11:17.380Z,0
2017-01-10T00:12:17.444Z,0
2017-01-10T00:13:17.486Z,0
2017-01-10T00:14:17.555Z,0
2017-01-10T00:15:17.606Z,0
2017-01-10T00:16:17.651Z,0
2017-01-10T00:17:17.712Z,0
2017-01-10T00:18:17.775Z,0
2017-01-10T00:19:17.836Z,0
2017-01-10T00:20:17.881Z,0
2017-01-10T00:21:17.948Z,0
2017-01-10T00:22:17.996Z,0
2017-01-10T00:23:18.053Z,0
2017-01-10T00:24:18.101Z,0
2017-01-10T00:25:18.165Z,0
2017-01-10T00:26:18.220Z,0
2017-01-10T00:27:18.281Z,0
2017-01-10T00:28:18.326Z,0
2017-01-10T00:29:18.391Z,0
2017-01-10T00:30:18.447Z,0
2017-01-10T00:31:18.505Z,0
2017-01-10T00:32:18.572Z,0
2017-01-10T00:33:18.614Z,0
2017-01-10T00:34:18.677Z,0
2017-01-10T00:35:18.728Z,0
2017-01-10T00:36:18.781Z,0
2017-01-10T00:37:18.837Z,0
2017-01-10T00:38:18.909Z,0
2017-01-10T00:39:18.963Z,0
2017-01-10T00:40:19.010Z,0
2017-01-10T00:41:19.070Z,0
2017-01-10T00:42:19.127Z,0
2017-01-10T00:43:19.180Z,0
2017-01-10T00:44:19.244Z,0
2017-01-10T00:45:19.292Z,0
2017-01-10T00:46:19.356Z,0
2017-01-10T00:47:19.412Z,0
2017-01-10T00:48:19.472Z,0
2017-01-10T00:49:19.529Z,0
2017-01-10T00:50:19.582Z,0
2017-01-10T00:51:19.630Z,0
2017-01-10T00:52:19.681Z,0
2017-01-10T00:53:19.748Z,0
2017-01-10T00:54:19.811Z,0
2017-01-10T00:55:19.863Z,0
2017-01-10T00:56:19.914Z,0
2017-01-10T00:57:19.967Z,0
2017-01-10T00:58:20.023Z,0
2017-01-10T00:59:20.089Z,0
2017-01-10T01:00:20.139Z,0
2017-01-10T01:01:20.209Z,0
2017-01-10T01:02:20.263Z,0
2017-01-10T01:03:20.307Z,0
2017-01-10T01:04:20.371Z,0
2017-01-10T01:05:20.436Z,0
2017-01-10T01:06:20.481Z,0
2017-01-10T01:07:20.539Z,0
2017-01-10T01:08:20.597Z,0
2017-01-10T01:09:20.640Z,0
2017-01-10T01:10:20.709Z,0
2017-01-10T01:11:20.774Z,0
2017-01-10T01:12:20.826Z,0
2017-01-10T01:13:20.872Z,0
2017-01-10T01:14:20.944Z,0
2017-01-10T01:15:20.999Z,0
2017-01-10T01:16:21.051Z,0
2017-01-10T01:17:21.107Z,0
2017-01-10T01:18:21.169Z,0
2017-01-10T01:19:21.221Z,0
2017-01-10T01:20:21.279Z,0
2017-01-10T01:21:21.338Z,0
2017-01-10T01:22:21.388Z,0
2017-01-10T01:23:21.439Z,0
2017-01-10T01:24:21.505Z,0
2017-01-10T01:25:21.562Z,0
2017-01-10T01:26:21.620Z,0
2017-01-10T01:27:21.670Z,0
2017-01-10T01:28:21.742Z,0
2017-01-10T01:29:21.799Z,0
2017-01-10T01:30:21.851Z,0
2017-01-10T01:31:21.900Z,0
2017-01-10T01:32:21.962Z,0
2017-01-10T01:33:22.015Z,0
2017-01-10T01:34:22.067Z,0
2017-01-10T01:35:22.131Z,0
2017-01-10T01:36:22.189Z,0
2017-01-10T01:37:22.236Z,0
2017-01-10T01:38:22.303Z,0
2017-01-10T01:39:22.366Z,0
2017-01-10T01:40:22.410Z,0
2017-01-10T01:41:22.465Z,0
2017-01-10T01:42:22.532Z,0
2017-01-10T01:43:22.584Z,0
2017-01-10T01:44:22.631Z,0
2017-01-10T01:45:22.689Z,0
2017-01-10T01:46:22.754Z,0
2017-01-10T01:47:22.814Z,0
2017-01-10T01:48:22.875Z,0
2017-01-10T01:49:22.909Z,0
2017-01-10T01:50:22.974Z,0
2017-01-10T01:51:23.033Z,0
2017-01-10T01:52:23.093Z,0
2017-01-10T01:53:23.527Z,0
2017-01-10T01:54:23.191Z,0
2017-01-10T01:55:23.259Z,0
2017-01-10T01:56:23.305Z,0
2017-01-10T01:57:23.369Z,0
2017-01-10T01:58:23.418Z,0
2017-01-10T01:59:23.481Z,0
2017-01-10T02:00:23.537Z,0
2017-01-10T02:01:23.588Z,0
2017-01-10T02:02:23.655Z,0
2017-01-10T02:03:23.710Z,0
2017-01-10T02:04:23.769Z,0
2017-01-10T02:05:23.819Z,0
2017-01-10T02:06:23.877Z,0
2017-01-10T02:07:23.927Z,0
2017-01-10T02:08:23.988Z,0
2017-01-10T02:09:24.051Z,0
2017-01-10T02:10:24.106Z,0
2017-01-10T02:11:24.156Z,0
2017-01-10T02:12:24.204Z,0
2017-01-10T02:13:24.267Z,0
2017-01-10T02:14:24.337Z,0
2017-01-10T02:15:24.384Z,0
2017-01-10T02:16:24.439Z,0
2017-01-10T02:17:24.499Z,0
2017-01-10T02:18:24.549Z,0
2017-01-10T02:19:24.608Z,0
2017-01-10T02:20:24.660Z,0
2017-01-10T02:21:24.720Z,0
2017-01-10T02:22:24.791Z,0
2017-01-10T02:23:24.827Z,0
2017-01-10T02:24:24.882Z,0
2017-01-10T02:25:24.946Z,0
2017-01-10T02:26:25.005Z,0
2017-01-10T02:27:25.064Z,0
2017-01-10T02:28:25.124Z,0
2017-01-10T02:29:25.178Z,0
2017-01-10T02:30:25.231Z,0
2017-01-10T02:31:25.282Z,0
2017-01-10T02:32:25.337Z,0
2017-01-10T02:33:25.401Z,0
2017-01-10T02:34:25.465Z,0
2017-01-10T02:35:25.536Z,0
2017-01-10T02:36:25.580Z,0
2017-01-10T02:37:25.624Z,0
2017-01-10T02:38:25.682Z,0
2017-01-10T02:39:25.737Z,0
2017-01-10T02:40:25.796Z,0
2017-01-10T02:41:25.847Z,0
2017-01-10T02:42:25.915Z,0
2017-01-10T02:43:25.977Z,0
2017-01-10T02:44:26.035Z,0
2017-01-10T02:45:26.078Z,0
2017-01-10T02:46:26.140Z,0
2017-01-10T02:47:26.215Z,0
2017-01-10T02:48:26.251Z,0
2017-01-10T02:49:26.301Z,0
2017-01-10T02:50:26.364Z,0
2017-01-10T02:51:26.423Z,0
2017-01-10T02:52:26.470Z,0
2017-01-10T02:53:26.533Z,0
2017-01-10T02:54:26.598Z,0
2017-01-10T02:55:26.640Z,0
2017-01-10T02:56:26.703Z,0
2017-01-10T02:57:26.756Z,0
2017-01-10T02:58:26.813Z,0
2017-01-10T02:59:26.873Z,0
2017-01-10T03:00:26.942Z,0
2017-01-10T03:01:27.372Z,0
2017-01-10T03:02:27.037Z,0
2017-01-10T03:03:27.089Z,0
2017-01-10T03:04:27.165Z,0
2017-01-10T03:05:27.218Z,0
2017-01-10T03:06:27.279Z,0
2017-01-10T03:07:27.318Z,0
2017-01-10T03:08:27.381Z,0
2017-01-10T03:09:27.444Z,0
2017-01-10T03:10:27.490Z,0
2017-01-10T03:11:27.554Z,0
2017-01-10T03:12:27.615Z,0
2017-01-10T03:13:27.658Z,0
2017-01-10T03:14:27.725Z,0
2017-01-10T03:15:27.785Z,0
2017-01-10T03:16:27.838Z,0
2017-01-10T03:17:27.902Z,0
2017-01-10T03:18:27.973Z,0
2017-01-10T03:19:28.000Z,0
2017-01-10T03:20:28.073Z,0
2017-01-10T03:21:28.111Z,0
2017-01-10T03:22:28.183Z,0
2017-01-10T03:23:28.237Z,0
2017-01-10T03:24:28.285Z,0
2017-01-10T03:25:28.545Z,0
2017-01-10T03:26:28.610Z,0
2017-01-10T03:27:28.458Z,0
2017-01-10T03:28:28.516Z,0
2017-01-10T03:29:28.565Z,0
2017-01-10T03:30:28.634Z,0
2017-01-10T03:31:28.686Z,0
2017-01-10T03:32:28.743Z,0
2017-01-10T03:33:28.805Z,0
2017-01-10T03:34:28.850Z,0
2017-01-10T03:35:28.905Z,0
2017-01-10T03:36:28.976Z,0
2017-01-10T03:37:29.023Z,0
2017-01-10T03:38:29.080Z,0
2017-01-10T03:39:29.133Z,0
2017-01-10T03:40:29.198Z,0
2017-01-10T03:41:29.251Z,0
2017-01-10T03:42:29.305Z,0
2017-01-10T03:43:29.358Z,0
2017-01-10T03:44:29.418Z,0
2017-01-10T03:45:29.471Z,0
2017-01-10T03:46:29.532Z,0
2017-01-10T03:47:29.606Z,0
2017-01-10T03:48:29.647Z,0
2017-01-10T03:49:29.703Z,0
2017-01-10T03:50:29.757Z,0
2017-01-10T03:51:30.021Z,0
2017-01-10T03:52:29.883Z,0
2017-01-10T03:53:29.937Z,0
2017-01-10T03:54:29.990Z,0
2017-01-10T03:55:30.040Z,0
2017-01-10T03:56:30.106Z,0
2017-01-10T03:57:30.155Z,0
2017-01-10T03:58:30.207Z,0
2017-01-10T03:59:30.277Z,0
2017-01-10T04:00:30.321Z,0
2017-01-10T04:01:30.374Z,0
2017-01-10T04:02:30.445Z,0
2017-01-10T04:03:30.489Z,0
2017-01-10T04:04:30.588Z,0
2017-01-10T04:05:30.609Z,0
2017-01-10T04:06:30.664Z,0
2017-01-10T04:07:30.724Z,0
2017-01-10T04:08:30.780Z,0
2017-01-10T04:09:30.833Z,0
2017-01-10T04:10:30.891Z,0
2017-01-10T04:11:30.944Z,0
2017-01-10T04:12:30.998Z,0
2017-01-10T04:13:31.063Z,0
2017-01-10T04:14:31.127Z,0
2017-01-10T04:15:31.173Z,0
2017-01-10T04:16:31.232Z,0
2017-01-10T04:17:31.290Z,0
2017-01-10T04:18:31.348Z,0
2017-01-10T04:19:31.408Z,0
2017-01-10T04:20:31.458Z,0
2017-01-10T04:21:31.519Z,0
2017-01-10T04:22:31.570Z,0
2017-01-10T04:23:31.623Z,0
2017-01-10T04:24:31.682Z,0
2017-01-10T04:25:31.744Z,0
2017-01-10T04:26:31.792Z,0
2017-01-10T04:27:31.859Z,0
2017-01-10T04:28:31.906Z,0
2017-01-10T04:29:31.969Z,0
2017-01-10T04:30:32.022Z,0
2017-01-10T04:31:32.069Z,0
2017-01-10T04:32:32.133Z,0
2017-01-10T04:33:32.192Z,0
2017-01-10T04:34:32.251Z,0
2017-01-10T04:35:32.303Z,0
2017-01-10T04:36:32.360Z,0
2017-01-10T04:37:32.419Z,0
2017-01-10T04:38:32.476Z,0
2017-01-10T04:39:32.526Z,0
2017-01-10T04:40:32.595Z,0
2017-01-10T04:41:32.640Z,0
2017-01-10T04:42:32.699Z,0
2017-01-10T04:43:32.747Z,0
2017-01-10T04:44:32.803Z,0
2017-01-10T04:45:32.877Z,0
2017-01-10T04:46:32.919Z,0
2017-01-10T04:47:32.979Z,0
2017-01-10T04:48:33.028Z,0
2017-01-10T04:49:33.100Z,0
2017-01-10T04:50:33.158Z,0
2017-01-10T04:51:33.203Z,0
2017-01-10T04:52:33.265Z,0
2017-01-10T04:53:33.321Z,0
2017-01-10T04:54:33.376Z,0
2017-01-10T04:55:33.430Z,0
2017-01-10T04:56:33.488Z,0
2017-01-10T04:57:33.547Z,0
2017-01-10T04:58:33.607Z,0
2017-01-10T04:59:33.652Z,0
2017-01-10T05:00:33.722Z,0
2017-01-10T05:01:33.780Z,0
2017-01-10T05:02:33.841Z,0
2017-01-10T05:03:33.888Z,0
2017-01-10T05:04:33.946Z,0
2017-01-10T05:05:33.999Z,0
2017-01-10T05:06:34.048Z,0
2017-01-10T05:07:34.118Z,0
2017-01-10T05:08:34.160Z,0
2017-01-10T05:09:34.434Z,0
2017-01-10T05:10:34.303Z,0
2017-01-10T05:11:34.336Z,0
2017-01-10T05:12:34.401Z,0
2017-01-10T05:13:34.456Z,0
2017-01-10T05:14:34.503Z,0
2017-01-10T05:15:34.567Z,0
2017-01-10T05:16:34.623Z,0
2017-01-10T05:17:34.680Z,0
2017-01-10T05:18:34.728Z,0
2017-01-10T05:19:34.793Z,0
2017-01-10T05:20:34.849Z,0
2017-01-10T05:21:34.913Z,0
2017-01-10T05:22:34.965Z,0
2017-01-10T05:23:35.033Z,0
2017-01-10T05:24:35.075Z,0
2017-01-10T05:25:35.133Z,0
2017-01-10T05:26:35.190Z,0
2017-01-10T05:27:35.253Z,0
2017-01-10T05:28:35.305Z,0
2017-01-10T05:29:35.355Z,0
2017-01-10T05:30:35.431Z,0
2017-01-10T05:31:35.472Z,0
2017-01-10T05:32:35.537Z,0
2017-01-10T05:33:35.590Z,0
2017-01-10T05:34:35.844Z,0
2017-01-10T05:35:35.906Z,0
2017-01-10T05:36:35.761Z,0
2017-01-10T05:37:35.812Z,0
2017-01-10T05:38:35.878Z,0
2017-01-10T05:39:35.929Z,0
2017-01-10T05:40:35.982Z,0
2017-01-10T05:41:36.034Z,0
2017-01-10T05:42:36.101Z,0
2017-01-10T05:43:36.154Z,0
2017-01-10T05:44:36.215Z,0
2017-01-10T05:45:36.267Z,0
2017-01-10T05:46:36.325Z,0
2017-01-10T05:47:36.390Z,0
2017-01-10T05:48:36.454Z,0
2017-01-10T05:49:36.495Z,0
2017-01-10T05:50:36.553Z,0
2017-01-10T05:51:36.632Z,0
2017-01-10T05:52:36.679Z,0
2017-01-10T05:53:36.729Z,0
2017-01-10T05:54:36.778Z,0
2017-01-10T05:55:36.838Z,0
2017-01-10T05:56:36.901Z,0
2017-01-10T05:57:36.955Z,0
2017-01-10T05:58:37.008Z,0
2017-01-10T05:59:37.069Z,0
2017-01-10T06:00:37.333Z,0
2017-01-10T06:01:37.383Z,0
2017-01-10T06:02:37.236Z,0
2017-01-10T06:03:37.294Z,0
2017-01-10T06:04:37.360Z,0
2017-01-10T06:05:37.397Z,0
2017-01-10T06:06:37.862Z,0
2017-01-10T06:07:37.517Z,0
2017-01-10T06:08:37.584Z,0
2017-01-10T06:09:37.629Z,0
2017-01-10T06:10:37.681Z,0
2017-01-10T06:11:37.747Z,0
2017-01-10T06:12:37.800Z,0
2017-01-10T06:13:37.852Z,0
2017-01-10T06:14:38.303Z,0
2017-01-10T06:15:37.968Z,0
2017-01-10T06:16:38.026Z,0
2017-01-10T06:17:38.089Z,0
2017-01-10T06:18:38.142Z,0
2017-01-10T06:19:38.191Z,0
2017-01-10T06:20:38.258Z,0
2017-01-10T06:21:38.309Z,0
2017-01-10T06:22:38.360Z,0
2017-01-10T06:23:38.418Z,0
2017-01-10T06:24:38.479Z,0
2017-01-10T06:25:38.530Z,0
2017-01-10T06:26:38.590Z,0
2017-01-10T06:27:38.653Z,0
2017-01-10T06:28:38.712Z,0
2017-01-10T06:29:38.760Z,0
2017-01-10T06:30:38.821Z,0
2017-01-10T06:31:38.869Z,0
2017-01-10T06:32:38.929Z,0
2017-01-10T06:33:38.983Z,0
2017-01-10T06:34:39.048Z,0
2017-01-10T06:35:39.094Z,0
2017-01-10T06:36:39.170Z,0
2017-01-10T06:37:39.210Z,0
2017-01-10T06:38:39.267Z,0
2017-01-10T06:39:39.328Z,0
2017-01-10T06:40:39.398Z,4
2017-01-10T06:41:39.441Z,4
2017-01-10T06:42:39.505Z,0
2017-01-10T06:43:39.561Z,4
2017-01-10T06:44:39.609Z,4
2017-01-10T06:45:39.661Z,4
2017-01-10T06:46:39.729Z,4
2017-01-10T06:47:39.773Z,4
2017-01-10T06:48:39.840Z,8
2017-01-10T06:49:39.890Z,8
2017-01-10T06:50:39.950Z,8
2017-01-10T06:51:40.011Z,8
2017-01-10T06:52:40.070Z,8
2017-01-10T06:53:40.128Z,12
2017-01-10T06:54:40.179Z,16
2017-01-10T06:55:40.227Z,16
2017-01-10T06:56:40.287Z,16
2017-01-10T06:57:40.346Z,20
2017-01-10T06:58:40.410Z,24
2017-01-10T06:59:40.469Z,24
2017-01-10T07:00:40.531Z,24
2017-01-10T07:01:40.587Z,24
2017-01-10T07:02:40.642Z,32
2017-01-10T07:03:40.681Z,32
2017-01-10T07:04:40.749Z,40
2017-01-10T07:05:40.803Z,40
2017-01-10T07:06:40.868Z,48
2017-01-10T07:07:40.918Z,52
2017-01-10T07:08:40.979Z,60
2017-01-10T07:09:41.019Z,68
2017-01-10T07:10:41.092Z,72
2017-01-10T07:11:41.141Z,76
2017-01-10T07:12:41.200Z,84
2017-01-10T07:13:41.246Z,92
2017-01-10T07:14:41.302Z,104
2017-01-10T07:15:41.367Z,112
2017-01-10T07:16:41.416Z,120
2017-01-10T07:17:41.479Z,132
2017-01-10T07:18:41.542Z,140
2017-01-10T07:19:41.592Z,148
2017-01-10T07:20:41.650Z,160
2017-01-10T07:21:41.703Z,168
2017-01-10T07:22:41.768Z,176
2017-01-10T07:23:41.815Z,192
2017-01-10T07:24:41.876Z,196
2017-01-10T07:25:41.935Z,208
2017-01-10T07:26:42.006Z,220
2017-01-10T07:27:42.037Z,224
2017-01-10T07:28:42.097Z,236
2017-01-10T07:29:42.165Z,244
2017-01-10T07:30:42.227Z,252
2017-01-10T07:31:42.282Z,260
2017-01-10T07:32:42.339Z,268
2017-01-10T07:33:42.389Z,280
2017-01-10T07:34:42.451Z,288
2017-01-10T07:35:42.496Z,296
2017-01-10T07:36:42.560Z,304
2017-01-10T07:37:42.628Z,312
2017-01-10T07:38:42.676Z,316
2017-01-10T07:39:42.734Z,324
2017-01-10T07:40:42.798Z,336
2017-01-10T07:41:42.855Z,352
2017-01-10T07:42:42.910Z,364
2017-01-10T07:43:42.972Z,384
2017-01-10T07:44:43.024Z,408
2017-01-10T07:45:43.076Z,432
2017-01-10T07:46:43.143Z,448
2017-01-10T07:47:43.199Z,452
2017-01-10T07:48:43.242Z,460
2017-01-10T07:49:43.306Z,472
2017-01-10T07:50:43.360Z,484
2017-01-10T07:51:43.421Z,496
2017-01-10T07:52:43.476Z,508
2017-01-10T07:53:43.529Z,516
2017-01-10T07:54:43.591Z,528
2017-01-10T07:55:43.650Z,540
2017-01-10T07:56:43.709Z,560
2017-01-10T07:57:43.780Z,576
2017-01-10T07:58:43.815Z,584
2017-01-10T07:59:43.884Z,596
2017-01-10T08:00:43.929Z,608
2017-01-10T08:01:44.003Z,620
2017-01-10T08:02:44.060Z,632
2017-01-10T08:03:44.111Z,652
2017-01-10T08:04:44.167Z,656
2017-01-10T08:05:44.230Z,668
2017-01-10T08:06:44.280Z,676
2017-01-10T08:07:44.334Z,688
2017-01-10T08:08:44.398Z,700
2017-01-10T08:09:44.460Z,708
2017-01-10T08:10:44.511Z,720
2017-01-10T08:11:44.565Z,732
2017-01-10T08:12:44.624Z,744
2017-01-10T08:13:44.685Z,752
2017-01-10T08:14:44.750Z,776
2017-01-10T08:15:44.807Z,792
2017-01-10T08:16:44.863Z,812
2017-01-10T08:17:44.914Z,832
2017-01-10T08:18:44.963Z,848
2017-01-10T08:19:45.029Z,860
2017-01-10T08:20:45.080Z,872
2017-01-10T08:21:45.147Z,884
2017-01-10T08:22:45.211Z,892
2017-01-10T08:23:45.254Z,908
2017-01-10T08:24:45.316Z,924
2017-01-10T08:25:45.368Z,940
2017-01-10T08:26:45.427Z,952
2017-01-10T08:27:45.487Z,964
2017-01-10T08:28:45.543Z,976
2017-01-10T08:29:45.611Z,988
2017-01-10T08:30:45.657Z,1004
2017-01-10T08:31:45.720Z,1008
2017-01-10T08:32:45.771Z,1016
2017-01-10T08:33:45.833Z,1024
2017-01-10T08:34:45.887Z,1024
2017-01-10T08:35:45.935Z,1024
2017-01-10T08:36:46.010Z,1012
2017-01-10T08:37:46.066Z,1040
2017-01-10T08:38:46.118Z,1060
2017-01-10T08:39:46.165Z,1072
2017-01-10T08:40:46.231Z,1056
2017-01-10T08:41:46.298Z,1060
2017-01-10T08:42:46.342Z,1072
2017-01-10T08:43:46.409Z,1048
2017-01-10T08:44:46.459Z,1068
2017-01-10T08:45:46.521Z,1080
2017-01-10T08:46:46.577Z,1088
2017-01-10T08:47:46.630Z,1104
2017-01-10T08:48:46.687Z,984
2017-01-10T08:49:46.756Z,1056
2017-01-10T08:50:46.810Z,1124
2017-01-10T08:51:46.873Z,1132
2017-01-10T08:52:46.923Z,1120
2017-01-10T08:53:46.976Z,1156
2017-01-10T08:54:47.025Z,1176
2017-01-10T08:55:47.471Z,1192
2017-01-10T08:56:47.156Z,1208
2017-01-10T08:57:47.196Z,1212
2017-01-10T08:58:47.255Z,1232
2017-01-10T08:59:47.321Z,1204
2017-01-10T09:00:47.376Z,1224
2017-01-10T09:01:47.443Z,1244
2017-01-10T09:02:47.486Z,1268
2017-01-10T09:03:47.550Z,1268
2017-01-10T09:04:47.604Z,1284
2017-01-10T09:05:47.665Z,1312
2017-01-10T09:06:47.710Z,1328
2017-01-10T09:07:47.775Z,1316
2017-01-10T09:08:47.833Z,1332
2017-01-10T09:09:47.898Z,1360
2017-01-10T09:10:47.945Z,1388
2017-01-10T09:11:47.994Z,1404
2017-01-10T09:12:48.054Z,1436
2017-01-10T09:13:48.125Z,1412
2017-01-10T09:14:48.176Z,1468
2017-01-10T09:15:48.237Z,1504
2017-01-10T09:16:48.298Z,1496
2017-01-10T09:17:48.371Z,1548
2017-01-10T09:18:48.406Z,1552
2017-01-10T09:19:48.460Z,1556
2017-01-10T09:20:48.524Z,1596
2017-01-10T09:21:48.588Z,1572
2017-01-10T09:22:48.639Z,1572
2017-01-10T09:23:48.699Z,1580
2017-01-10T09:24:48.746Z,1616
2017-01-10T09:25:48.805Z,1520
2017-01-10T09:26:48.904Z,944
2017-01-10T09:27:48.926Z,1632
2017-01-10T09:28:48.979Z,1608
2017-01-10T09:29:49.035Z,1616
2017-01-10T09:30:49.087Z,1620
2017-01-10T09:31:49.201Z,1580
2017-01-10T09:32:49.213Z,1664
2017-01-10T09:33:49.271Z,1696
2017-01-10T09:34:49.323Z,1588
2017-01-10T09:35:49.390Z,1712
2017-01-10T09:36:49.429Z,1556
2017-01-10T09:37:49.503Z,1584
2017-01-10T09:38:49.554Z,1620
2017-01-10T09:39:49.610Z,1624
2017-01-10T09:40:49.668Z,1680
2017-01-10T09:41:49.731Z,1684
2017-01-10T09:42:49.779Z,1676
2017-01-10T09:43:49.844Z,1808
2017-01-10T09:44:49.896Z,1816
2017-01-10T09:45:49.962Z,1840
2017-01-10T09:46:50.017Z,1828
2017-01-10T09:47:50.081Z,1852
2017-01-10T09:48:50.121Z,1828
2017-01-10T09:49:50.178Z,1864
2017-01-10T09:50:50.236Z,1900
2017-01-10T09:51:50.302Z,1928
2017-01-10T09:52:50.345Z,1964
2017-01-10T09:53:50.420Z,1980
2017-01-10T09:54:50.472Z,2008
2017-01-10T09:55:50.519Z,1352
2017-01-10T09:56:50.586Z,1412
2017-01-10T09:57:50.637Z,2048
2017-01-10T09:58:50.700Z,2084
2017-01-10T09:59:50.753Z,2056
2017-01-10T10:00:50.815Z,2052
2017-01-10T10:01:50.872Z,2060
2017-01-10T10:02:50.933Z,2064
2017-01-10T10:03:50.990Z,2096
2017-01-10T10:04:51.049Z,2132
2017-01-10T10:05:51.100Z,2116
2017-01-10T10:06:51.157Z,2140
2017-01-10T10:07:51.209Z,2168
2017-01-10T10:08:51.266Z,2184
2017-01-10T10:09:51.337Z,2180
2017-01-10T10:10:51.388Z,2264
2017-01-10T10:11:51.443Z,2464
2017-01-10T10:12:51.490Z,2796
2017-01-10T10:13:51.563Z,56864
2017-01-10T10:14:51.609Z,56960
2017-01-10T10:15:51.674Z,57184
2017-01-10T10:16:51.717Z,57120
2017-01-10T10:17:51.784Z,51360
2017-01-10T10:18:51.843Z,35264
2017-01-10T10:19:51.899Z,39232
2017-01-10T10:20:51.956Z,49344
2017-01-10T10:21:52.013Z,61056
2017-01-10T10:22:52.078Z,61120
2017-01-10T10:23:52.119Z,61216
2017-01-10T10:24:52.181Z,61440
2017-01-10T10:25:52.245Z,60448
2017-01-10T10:26:52.295Z,58400
2017-01-10T10:27:52.352Z,55424
2017-01-10T10:28:52.419Z,54432
2017-01-10T10:29:52.460Z,56096
2017-01-10T10:30:52.521Z,58976
2017-01-10T10:31:52.588Z,61536
2017-01-10T10:32:52.639Z,60448
2017-01-10T10:33:52.692Z,61344
2017-01-10T10:34:52.760Z,60896
2017-01-10T10:35:52.813Z,60768
2017-01-10T10:36:52.862Z,59648
2017-01-10T10:37:52.929Z,57312
2017-01-10T10:38:52.975Z,55712
2017-01-10T10:39:53.048Z,54400
2017-01-10T10:40:53.106Z,54944
2017-01-10T10:41:53.156Z,56096
2017-01-10T10:42:53.215Z,57120
2017-01-10T10:43:53.270Z,59808
2017-01-10T10:44:53.320Z,58336
2017-01-10T10:45:53.377Z,56512
2017-01-10T10:46:53.440Z,55936
2017-01-10T10:47:53.513Z,49952
2017-01-10T10:48:53.561Z,58240
2017-01-10T10:49:53.608Z,62144
2017-01-10T10:50:53.700Z,62400
2017-01-10T10:51:53.723Z,63488
2017-01-10T10:52:53.776Z,64192
2017-01-10T10:53:53.847Z,64352
2017-01-10T10:54:53.903Z,62560
2017-01-10T10:55:53.950Z,60384
2017-01-10T10:56:54.006Z,59488
2017-01-10T10:57:54.068Z,58208
2017-01-10T10:58:54.127Z,61728
2017-01-10T10:59:54.193Z,63488
2017-01-10T11:00:54.259Z,64096
2017-01-10T11:01:54.296Z,63712
2017-01-10T11:02:54.359Z,62112
2017-01-10T11:03:54.414Z,63008
2017-01-10T11:04:54.465Z,62784
2017-01-10T11:05:54.531Z,61664
2017-01-10T11:06:54.586Z,61728
2017-01-10T11:07:54.645Z,61888
2017-01-10T11:08:54.707Z,62240
2017-01-10T11:09:54.761Z,63840
2017-01-10T11:10:54.812Z,63904
2017-01-10T11:11:54.868Z,64096
2017-01-10T11:12:54.927Z,63840
2017-01-10T11:13:54.995Z,65152
2017-01-10T11:14:55.044Z,65152
2017-01-10T11:15:55.103Z,65344
2017-01-10T11:16:55.165Z,63616
2017-01-10T11:17:55.217Z,61184
2017-01-10T11:18:55.277Z,61472
2017-01-10T11:19:55.342Z,64992
2017-01-10T11:20:55.390Z,66560
2017-01-10T11:21:55.450Z,66240
2017-01-10T11:22:55.515Z,67520
2017-01-10T11:23:55.560Z,67232
2017-01-10T11:24:55.623Z,64128
2017-01-10T11:25:55.679Z,64096
2017-01-10T11:26:55.734Z,61024
2017-01-10T11:27:55.809Z,62304
2017-01-10T11:28:55.851Z,67072
2017-01-10T11:29:55.907Z,65024
2017-01-10T11:30:55.964Z,64384
2017-01-10T11:31:56.021Z,60608
2017-01-10T11:32:56.086Z,59648
2017-01-10T11:33:56.139Z,60960
2017-01-10T11:34:56.186Z,62112
2017-01-10T11:35:56.253Z,62944
2017-01-10T11:36:56.313Z,65600
2017-01-10T11:37:56.370Z,63424
2017-01-10T11:38:56.419Z,64960
2017-01-10T11:39:56.482Z,64896
2017-01-10T11:40:56.532Z,64896
2017-01-10T11:41:56.595Z,64480
2017-01-10T11:42:56.656Z,64544
2017-01-10T11:43:56.708Z,66720
2017-01-10T11:44:56.777Z,65056
2017-01-10T11:45:56.831Z,62976
2017-01-10T11:46:56.893Z,65088
2017-01-10T11:47:56.944Z,66560
2017-01-10T11:48:56.997Z,64288
2017-01-10T11:49:57.060Z,55680
2017-01-10T11:50:57.111Z,56096
2017-01-10T11:51:57.175Z,65888
2017-01-10T11:52:57.225Z,64032
2017-01-10T11:53:57.287Z,60352
2017-01-10T11:54:57.337Z,58624
2017-01-10T11:55:57.396Z,59296
2017-01-10T11:56:57.459Z,60800
2017-01-10T11:57:57.509Z,61344
2017-01-10T11:58:57.585Z,64224
2017-01-10T11:59:57.620Z,63744
2017-01-10T12:00:57.680Z,59968
2017-01-10T12:01:57.745Z,65984
2017-01-10T12:02:57.797Z,63744
2017-01-10T12:03:57.864Z,60960
2017-01-10T12:04:57.922Z,57088
2017-01-10T12:05:57.969Z,55168
2017-01-10T12:06:58.027Z,46112
2017-01-10T12:07:58.092Z,42848
2017-01-10T12:08:58.140Z,37568
2017-01-10T12:09:58.209Z,34656
2017-01-10T12:10:58.251Z,33920
2017-01-10T12:11:58.316Z,34080
2017-01-10T12:12:58.369Z,40288
2017-01-10T12:13:58.420Z,38816
2017-01-10T12:14:58.488Z,42336
2017-01-10T12:15:58.545Z,47168
2017-01-10T12:16:58.600Z,49632
2017-01-10T12:17:58.664Z,54432
2017-01-10T12:18:58.719Z,61728
2017-01-10T12:19:58.778Z,66688
2017-01-10T12:20:58.833Z,70496
2017-01-10T12:21:58.918Z,66752
2017-01-10T12:22:58.948Z,66464
2017-01-10T12:23:59.008Z,67168
2017-01-10T12:24:59.069Z,64064
2017-01-10T12:25:59.128Z,66752
2017-01-10T12:26:59.180Z,73760
2017-01-10T12:27:59.232Z,67424
2017-01-10T12:28:59.292Z,64416
2017-01-10T12:29:59.348Z,68960
2017-01-10T12:30:59.405Z,62368
2017-01-10T12:31:59.467Z,56544
2017-01-10T12:32:59.524Z,53312
2017-01-10T12:33:59.579Z,58080
2017-01-10T12:34:59.638Z,60608
2017-01-10T12:35:59.688Z,55680
2017-01-10T12:36:59.756Z,60256
2017-01-10T12:37:59.823Z,62592
2017-01-10T12:38:59.875Z,61952
2017-01-10T12:39:59.925Z,59872
2017-01-10T12:40:59.993Z,64384
2017-01-10T12:42:00.044Z,61376
2017-01-10T12:43:00.113Z,62048
2017-01-10T12:44:00.165Z,66368
2017-01-10T12:45:00.217Z,63712
2017-01-10T12:46:00.281Z,65024
2017-01-10T12:47:00.337Z,60032
2017-01-10T12:48:00.397Z,61472
2017-01-10T12:49:00.480Z,61536
2017-01-10T12:50:00.549Z,57824
2017-01-10T12:51:00.565Z,55392
2017-01-10T12:52:00.626Z,52960
2017-01-10T12:53:00.692Z,47904
2017-01-10T12:54:00.754Z,51136
2017-01-10T12:55:00.808Z,57056
2017-01-10T12:56:00.860Z,58304
2017-01-10T12:57:00.923Z,58464
2017-01-10T12:58:00.986Z,58592
2017-01-10T12:59:01.035Z,56160
2017-01-10T13:00:01.099Z,58368
2017-01-10T13:01:01.215Z,55744
2017-01-10T13:02:01.201Z,58080
2017-01-10T13:03:01.275Z,62304
2017-01-10T13:04:01.325Z,53312
2017-01-10T13:05:01.397Z,55648
2017-01-10T13:06:01.432Z,53920
2017-01-10T13:07:01.505Z,50112
2017-01-10T13:08:01.560Z,56800
2017-01-10T13:09:01.618Z,52064
2017-01-10T13:10:01.668Z,52096
2017-01-10T13:11:01.724Z,53728
2017-01-10T13:12:01.783Z,52224
2017-01-10T13:13:01.846Z,50784
2017-01-10T13:14:01.905Z,52544
2017-01-10T13:15:01.963Z,51808
2017-01-10T13:16:02.011Z,52032
2017-01-10T13:17:02.078Z,51872
2017-01-10T13:18:02.135Z,50112
2017-01-10T13:19:02.194Z,47936
2017-01-10T13:20:02.244Z,47328
2017-01-10T13:21:02.309Z,45056
2017-01-10T13:22:02.369Z,43520
2017-01-10T13:23:02.422Z,44768
2017-01-10T13:24:02.476Z,43520
2017-01-10T13:25:02.545Z,44512
2017-01-10T13:26:02.603Z,45760
2017-01-10T13:27:02.650Z,45632
2017-01-10T13:28:02.705Z,46336
2017-01-10T13:29:02.769Z,46144
2017-01-10T13:30:02.823Z,44832
2017-01-10T13:31:02.888Z,43840
2017-01-10T13:32:02.948Z,41344
2017-01-10T13:33:02.996Z,44032
2017-01-10T13:34:03.053Z,42944
2017-01-10T13:35:03.117Z,42496
2017-01-10T13:36:03.175Z,42560
2017-01-10T13:37:03.230Z,41696
2017-01-10T13:38:03.279Z,40640
2017-01-10T13:39:03.333Z,38112
2017-01-10T13:40:03.398Z,38272
2017-01-10T13:41:03.464Z,37376
2017-01-10T13:42:03.514Z,35424
2017-01-10T13:43:03.567Z,34176
2017-01-10T13:44:03.621Z,34240
2017-01-10T13:45:03.679Z,35392
2017-01-10T13:46:03.753Z,36032
2017-01-10T13:47:03.810Z,34944
2017-01-10T13:48:03.854Z,35136
2017-01-10T13:49:03.925Z,35328
2017-01-10T13:50:03.972Z,33248
2017-01-10T13:51:04.038Z,28992
2017-01-10T13:52:04.137Z,27488
2017-01-10T13:53:04.146Z,27840
2017-01-10T13:54:04.195Z,29696
2017-01-10T13:55:04.272Z,34368
2017-01-10T13:56:04.319Z,35168
2017-01-10T13:57:04.372Z,35232